createdAt,value
2018-11-14T00:00:14.838Z,102478.89
2018-11-14T00:02:43.293Z,102493.11
2018-11-14T00:05:10.751Z,102486.08
2018-11-14T00:07:38.335Z,102482.59
2018-11-14T00:10:06.634Z,102490.47
2018-11-14T00:12:34.063Z,102484.61
2018-11-14T00:15:04.074Z,102481.49
2018-11-14T00:17:31.481Z,102475.33
2018-11-14T00:19:58.970Z,102472.81
2018-11-14T00:22:26.487Z,102483.36
2018-11-14T00:24:54.135Z,102490.73
2018-11-14T00:27:22.213Z,102487.17
2018-11-14T00:29:49.638Z,102488.38
2018-11-14T00:32:17.181Z,102492.75
2018-11-14T00:34:44.643Z,102498.48
2018-11-14T00:37:12.126Z,102489.47
2018-11-14T00:39:41.749Z,102490.41
2018-11-14T00:42:09.330Z,102487.42
2018-11-14T00:44:36.857Z,102486.98
2018-11-14T00:47:04.405Z,102486.66
2018-11-14T00:49:32.003Z,102487.87
2018-11-14T00:52:00.381Z,102480.23
2018-11-14T00:54:27.938Z,102484.17
2018-11-14T00:56:55.507Z,102483.02
2018-11-14T00:59:23.031Z,102482.64
2018-11-14T01:01:50.555Z,102481.56
2018-11-14T01:04:20.483Z,102479.69
2018-11-14T01:06:48.979Z,102483.53
2018-11-14T01:09:16.599Z,102477.70
2018-11-14T01:11:44.215Z,102485.74
2018-11-14T01:14:11.694Z,102471.92
2018-11-14T01:16:40.142Z,102469.13
2018-11-14T01:19:09.008Z,102473.52
2018-11-14T01:21:36.681Z,102479.23
2018-11-14T01:24:04.185Z,102475.80
2018-11-14T01:26:31.743Z,102469.95
2018-11-14T01:29:01.222Z,102473.95
2018-11-14T01:31:28.696Z,102472.25
2018-11-14T01:33:56.228Z,102467.49
2018-11-14T01:36:23.805Z,102475.66
2018-11-14T01:38:51.294Z,102477.53
2018-11-14T01:41:19.730Z,102473.87
2018-11-14T01:43:47.559Z,102474.70
2018-11-14T01:46:14.989Z,102475.20
2018-11-14T01:48:42.453Z,102477.56
2018-11-14T01:51:09.986Z,102479.64
2018-11-14T02:00:25.001Z,102472.09
2018-11-14T02:02:52.568Z,102472.82
2018-11-14T02:05:20.970Z,102480.25
2018-11-14T02:07:48.753Z,102483.61
2018-11-14T02:10:18.203Z,102484.45
2018-11-14T02:12:45.961Z,102485.42
2018-11-14T02:15:16.823Z,102481.34
2018-11-14T02:17:46.439Z,102486.23
2018-11-14T02:20:14.055Z,102473.45
2018-11-14T02:22:42.708Z,102477.92
2018-11-14T02:25:11.041Z,102474.86
2018-11-14T02:27:38.557Z,102485.91
2018-11-14T02:30:09.600Z,102480.01
2018-11-14T02:32:37.025Z,102486.66
2018-11-14T02:35:05.066Z,102482.72
2018-11-14T02:37:32.632Z,102483.87
2018-11-14T02:40:00.045Z,102482.50
2018-11-14T02:42:29.570Z,102485.64
2018-11-14T02:44:57.424Z,102482.59
2018-11-14T02:47:24.844Z,102476.86
2018-11-14T02:49:52.438Z,102475.45
2018-11-14T02:52:19.929Z,102481.52
2018-11-14T02:54:48.531Z,102485.50
2018-11-14T02:57:15.955Z,102472.88
2018-11-14T02:59:44.386Z,102474.91
2018-11-14T03:02:11.877Z,102463.20
2018-11-14T03:04:39.389Z,102469.63
2018-11-14T03:07:09.242Z,102468.84
2018-11-14T03:09:36.700Z,102460.75
2018-11-14T03:12:04.424Z,102456.31
2018-11-14T03:14:32.075Z,102454.64
2018-11-14T03:16:59.527Z,102447.04
2018-11-14T03:19:27.946Z,102440.18
2018-11-14T03:21:55.412Z,102443.59
2018-11-14T03:24:22.830Z,102443.28
2018-11-14T03:26:50.294Z,102443.59
2018-11-14T03:29:17.873Z,102439.50
2018-11-14T03:31:47.085Z,102434.97
2018-11-14T03:34:14.686Z,102438.41
2018-11-14T03:36:43.213Z,102440.48
2018-11-14T03:39:10.717Z,102438.05
2018-11-14T03:41:38.172Z,102440.58
2018-11-14T03:44:06.734Z,102448.08
2018-11-14T03:46:34.343Z,102445.55
2018-11-14T03:49:01.917Z,102449.21
2018-11-14T03:51:29.501Z,102439.94
2018-11-14T03:53:56.971Z,102442.60
2018-11-14T03:56:25.758Z,102433.03
2018-11-14T03:58:54.645Z,102431.52
2018-11-14T04:01:22.102Z,102429.94
2018-11-14T04:03:49.567Z,102421.44
2018-11-14T04:06:17.108Z,102419.42
2018-11-14T04:08:45.657Z,102426.84
2018-11-14T04:11:13.267Z,102428.84
2018-11-14T04:13:40.835Z,102424.27
2018-11-14T04:16:08.419Z,102424.30
2018-11-14T04:18:35.903Z,102423.80
2018-11-14T04:21:04.996Z,102433.54
2018-11-14T04:23:32.457Z,102428.53
2018-11-14T04:25:59.907Z,102435.73
2018-11-14T04:28:27.427Z,102429.38
2018-11-14T04:30:54.979Z,102420.03
2018-11-14T04:33:23.402Z,102421.80
2018-11-14T04:35:52.201Z,102415.27
2018-11-14T04:38:19.642Z,102407.58
2018-11-14T04:40:47.220Z,102408.28
2018-11-14T04:43:14.685Z,102409.47
2018-11-14T04:45:43.698Z,102406.41
2018-11-14T04:48:11.568Z,102410.84
2018-11-14T04:50:39.009Z,102409.87
2018-11-14T04:53:07.390Z,102403.63
2018-11-14T04:55:34.870Z,102394.36
2018-11-14T04:58:04.301Z,102393.47
2018-11-14T05:00:31.822Z,102386.02
2018-11-14T05:02:59.260Z,102380.88
2018-11-14T05:05:26.831Z,102384.16
2018-11-14T05:07:54.276Z,102384.20
2018-11-14T05:10:24.924Z,102380.66
2018-11-14T05:12:52.704Z,102379.78
2018-11-14T05:15:21.426Z,102377.42
2018-11-14T05:17:49.496Z,102378.84
2018-11-14T05:20:18.085Z,102383.67
2018-11-14T05:22:47.694Z,102381.11
2018-11-14T05:25:15.255Z,102382.34
2018-11-14T05:27:42.960Z,102386.20
2018-11-14T05:30:12.733Z,102386.78
2018-11-14T05:32:40.600Z,102394.63
2018-11-14T05:35:11.892Z,102396.00
2018-11-14T05:37:39.920Z,102401.56
2018-11-14T05:40:11.824Z,102395.53
2018-11-14T05:42:39.954Z,102396.25
2018-11-14T05:45:11.698Z,102399.93
2018-11-14T05:47:39.790Z,102405.63
2018-11-14T05:50:11.158Z,102401.27
2018-11-14T05:52:38.805Z,102402.17
2018-11-14T05:55:06.566Z,102404.84
2018-11-14T05:57:36.077Z,102396.39
2018-11-14T06:00:05.293Z,102395.25
2018-11-14T06:02:32.886Z,102396.03
2018-11-14T06:05:00.473Z,102392.97
2018-11-14T06:07:27.919Z,102384.52
2018-11-14T06:09:56.465Z,102389.30
2018-11-14T06:12:24.209Z,102388.89
2018-11-14T06:14:51.711Z,102392.08
2018-11-14T06:17:19.164Z,102388.20
2018-11-14T06:19:46.690Z,102389.92
2018-11-14T06:22:16.066Z,102388.22
2018-11-14T06:24:43.553Z,102395.53
2018-11-14T06:27:11.162Z,102395.23
2018-11-14T06:29:38.977Z,102396.89
2018-11-14T06:32:06.652Z,102397.05
2018-11-14T06:34:36.156Z,102380.30
2018-11-14T06:37:03.675Z,102385.59
2018-11-14T06:39:31.226Z,102382.36
2018-11-14T06:41:58.811Z,102390.83
2018-11-14T06:44:26.290Z,102397.99
2018-11-14T06:46:55.338Z,102401.82
2018-11-14T06:49:22.923Z,102402.20
2018-11-14T06:51:50.760Z,102403.56
2018-11-14T06:54:18.283Z,102394.81
2018-11-14T06:56:45.889Z,102393.98
2018-11-14T06:59:14.340Z,102389.50
2018-11-14T07:01:41.817Z,102400.94
2018-11-14T07:04:09.471Z,102395.73
2018-11-14T07:06:36.930Z,102398.05
2018-11-14T07:09:07.869Z,102391.79
2018-11-14T07:11:37.275Z,102399.31
2018-11-14T07:14:04.927Z,102391.84
2018-11-14T07:16:32.394Z,102391.48
2018-11-14T07:18:59.984Z,102400.25
2018-11-14T07:21:27.464Z,102399.77
2018-11-14T07:23:56.133Z,102391.74
2018-11-14T07:26:24.764Z,102403.28
2018-11-14T07:28:52.259Z,102407.70
2018-11-14T07:31:19.722Z,102405.91
2018-11-14T07:33:47.394Z,102416.09
2018-11-14T07:36:16.973Z,102421.08
2018-11-14T07:38:45.659Z,102413.04
2018-11-14T07:41:16.549Z,102408.34
2018-11-14T07:43:44.452Z,102414.02
2018-11-14T07:46:12.442Z,102425.55
2018-11-14T07:48:41.318Z,102427.28
2018-11-14T07:51:08.916Z,102433.05
2018-11-14T07:53:38.287Z,102434.87
2018-11-14T07:56:05.884Z,102437.92
2018-11-14T07:58:33.371Z,102443.29
2018-11-14T08:01:01.899Z,102439.28
2018-11-14T08:03:30.368Z,102445.92
2018-11-14T08:05:58.072Z,102443.28
2018-11-14T08:08:25.656Z,102444.16
2018-11-14T08:10:53.309Z,102445.03
2018-11-14T08:13:27.465Z,102452.55
2018-11-14T08:15:56.659Z,102453.88
2018-11-14T08:18:24.462Z,102446.38
2018-11-14T08:20:51.932Z,102445.48
2018-11-14T08:23:19.475Z,102455.20
2018-11-14T08:25:48.046Z,102452.55
2018-11-14T08:28:16.284Z,102449.89
2018-11-14T08:30:44.463Z,102450.31
2018-11-14T08:33:11.899Z,102459.63
2018-11-14T08:35:39.470Z,102458.28
2018-11-14T08:38:09.883Z,102463.58
2018-11-14T08:40:37.444Z,102460.87
2018-11-14T08:43:05.521Z,102457.83
2018-11-14T08:45:33.049Z,102460.06
2018-11-14T08:48:00.501Z,102462.70
2018-11-14T08:50:29.137Z,102451.22
2018-11-14T08:52:56.745Z,102455.64
2018-11-14T08:55:25.389Z,102458.73
2018-11-14T08:57:52.876Z,102447.24
2018-11-14T09:00:25.229Z,102460.48
2018-11-14T09:02:55.699Z,102456.96
2018-11-14T09:05:25.345Z,102465.37
2018-11-14T09:07:53.013Z,102464.89
2018-11-14T09:10:21.851Z,102459.14
2018-11-14T09:12:49.639Z,102462.70
2018-11-14T09:15:21.227Z,102466.68
2018-11-14T09:17:48.875Z,102463.62
2018-11-14T09:20:17.838Z,102460.96
2018-11-14T09:22:45.578Z,102463.17
2018-11-14T09:25:14.804Z,102464.94
2018-11-14T09:27:44.185Z,102460.45
2018-11-14T09:30:15.147Z,102464.00
2018-11-14T09:32:42.648Z,102463.97
2018-11-14T09:35:11.875Z,102464.06
2018-11-14T09:37:39.878Z,102458.30
2018-11-14T09:40:11.317Z,102467.09
2018-11-14T09:42:39.053Z,102464.43
2018-11-14T09:45:10.303Z,102467.84
2018-11-14T09:47:37.882Z,102462.38
2018-11-14T09:50:08.994Z,102471.97
2018-11-14T09:52:37.030Z,102469.71
2018-11-14T09:55:05.950Z,102470.61
2018-11-14T09:57:34.541Z,102477.15
2018-11-14T10:00:02.101Z,102471.83
2018-11-14T10:02:30.485Z,102467.44
2018-11-14T10:04:57.981Z,102465.42
2018-11-14T10:07:26.320Z,102464.33
2018-11-14T10:09:53.773Z,102454.20
2018-11-14T10:12:21.429Z,102448.16
2018-11-14T10:14:50.665Z,102441.45
2018-11-14T10:17:18.310Z,102446.05
2018-11-14T10:19:46.272Z,102443.90
2018-11-14T10:22:14.147Z,102433.30
2018-11-14T10:24:41.852Z,102436.63
2018-11-14T10:27:09.865Z,102426.52
2018-11-14T10:29:37.417Z,102421.95
2018-11-14T10:32:05.455Z,102421.50
2018-11-14T10:34:32.976Z,102420.33
2018-11-14T10:37:03.891Z,102420.05
2018-11-14T10:39:33.705Z,102416.39
2018-11-14T10:42:01.358Z,102417.97
2018-11-14T10:44:30.298Z,102411.27
2018-11-14T10:46:59.604Z,102417.54
2018-11-14T10:49:29.022Z,102407.84
2018-11-14T10:51:57.559Z,102413.36
2018-11-14T10:54:25.341Z,102413.63
2018-11-14T10:56:53.402Z,102416.17
2018-11-14T10:59:22.642Z,102406.66
2018-11-14T11:01:55.793Z,102413.70
2018-11-14T11:04:30.372Z,102402.27
2018-11-14T11:07:03.970Z,102397.84
2018-11-14T11:09:42.271Z,102398.88
2018-11-14T11:12:15.457Z,102383.22
2018-11-14T11:14:49.671Z,102381.34
2018-11-14T11:17:21.747Z,102378.21
2018-11-14T11:19:59.245Z,102382.55
2018-11-14T11:22:34.451Z,102376.14
2018-11-14T11:25:10.985Z,102373.02
2018-11-14T11:27:48.332Z,102368.71
2018-11-14T11:30:24.777Z,102364.16
2018-11-14T11:32:58.298Z,102368.59
2018-11-14T11:38:06.705Z,102355.06
2018-11-14T11:40:41.081Z,102354.79
2018-11-14T11:43:10.840Z,102355.58
2018-11-14T11:45:40.581Z,102345.03
2018-11-14T11:48:08.711Z,102345.64
2018-11-14T11:50:41.254Z,102342.80
2018-11-14T11:53:15.480Z,102337.83
2018-11-14T11:55:43.979Z,102335.00
2018-11-14T11:58:13.435Z,102339.06
2018-11-14T12:00:41.936Z,102328.22
2018-11-14T12:03:09.428Z,102329.48
2018-11-14T12:05:37.249Z,102334.74
2018-11-14T12:08:11.120Z,102338.49
2018-11-14T12:10:39.258Z,102324.84
2018-11-14T12:13:06.947Z,102321.53
2018-11-14T12:15:34.536Z,102314.37
2018-11-14T12:18:03.423Z,102320.28
2018-11-14T12:20:33.338Z,102324.47
2018-11-14T12:23:01.430Z,102319.95
2018-11-14T12:25:29.206Z,102317.09
2018-11-14T12:27:56.846Z,102317.83
2018-11-14T12:30:24.627Z,102307.73
2018-11-14T12:32:53.097Z,102300.76
2018-11-14T12:35:21.524Z,102304.75
2018-11-14T12:37:49.898Z,102303.77
2018-11-14T12:40:17.868Z,102304.95
2018-11-14T12:42:45.521Z,102295.67
2018-11-14T12:45:15.667Z,102297.89
2018-11-14T12:47:43.869Z,102295.22
2018-11-14T12:50:12.554Z,102291.05
2018-11-14T12:52:40.430Z,102298.98
2018-11-14T12:55:11.559Z,102302.79
2018-11-14T12:57:39.691Z,102299.46
2018-11-14T13:00:09.544Z,102300.09
2018-11-14T13:02:38.033Z,102301.25
2018-11-14T13:05:06.597Z,102295.67
2018-11-14T13:07:34.158Z,102288.13
2018-11-14T13:10:02.172Z,102287.02
2018-11-14T13:12:30.639Z,102289.28
2018-11-14T13:14:58.124Z,102291.38
2018-11-14T13:17:27.499Z,102285.52
2018-11-14T13:19:55.530Z,102285.50
2018-11-14T13:22:24.264Z,102286.85
2018-11-14T13:24:52.694Z,102278.92
2018-11-14T13:27:20.517Z,102287.30
2018-11-14T13:29:48.496Z,102270.61
2018-11-14T13:32:16.269Z,102268.77
2018-11-14T13:34:44.546Z,102272.65
2018-11-14T13:37:12.762Z,102271.18
2018-11-14T13:39:40.488Z,102260.70
2018-11-14T13:42:08.369Z,102260.63
2018-11-14T13:44:35.960Z,102260.46
2018-11-14T13:47:05.104Z,102265.00
2018-11-14T13:49:33.193Z,102269.16
2018-11-14T13:52:00.497Z,102262.48
2018-11-14T13:54:28.519Z,102262.55
2018-11-14T13:56:56.255Z,102256.13
2018-11-14T13:59:24.343Z,102257.56
2018-11-14T14:01:52.553Z,102260.02
2018-11-14T14:04:21.791Z,102262.70
2018-11-14T14:06:49.308Z,102263.59
2018-11-14T14:09:17.117Z,102270.52
2018-11-14T14:11:45.149Z,102262.53
2018-11-14T14:14:14.675Z,102265.97
2018-11-14T14:16:43.256Z,102256.98
2018-11-14T14:19:11.052Z,102269.33
2018-11-14T14:21:39.053Z,102263.05
2018-11-14T14:24:07.800Z,102261.95
2018-11-14T14:26:36.842Z,102250.38
2018-11-14T14:29:04.677Z,102261.17
2018-11-14T14:31:32.475Z,102253.26
2018-11-14T14:34:00.149Z,102261.88
2018-11-14T14:36:28.344Z,102261.47
2018-11-14T14:38:57.939Z,102264.58
2018-11-14T14:41:25.582Z,102254.48
2018-11-14T14:43:53.224Z,102260.97
2018-11-14T14:46:20.868Z,102260.11
2018-11-14T14:48:49.451Z,102253.05
2018-11-14T14:51:17.439Z,102247.02
2018-11-14T14:53:45.173Z,102251.66
2018-11-14T14:56:13.100Z,102245.83
2018-11-14T15:12:11.654Z,102236.95
2018-11-14T15:14:39.395Z,102236.11
2018-11-14T15:17:06.958Z,102231.55
2018-11-14T15:19:36.221Z,102233.80
2018-11-14T15:22:04.595Z,102231.30
2018-11-14T15:24:32.695Z,102224.67
2018-11-14T15:27:00.408Z,102217.08
2018-11-14T15:29:27.980Z,102210.66
2018-11-14T15:31:55.638Z,102218.88
2018-11-14T15:37:30.307Z,102213.13
2018-11-14T15:39:57.962Z,102219.33
2018-11-14T15:42:25.489Z,102219.03
2018-11-14T15:44:54.276Z,102219.78
2018-11-14T15:47:21.973Z,102212.19
2018-11-14T15:49:49.577Z,102209.31
2018-11-14T15:52:17.157Z,102207.65
2018-11-14T15:54:45.835Z,102208.06
2018-11-14T15:57:14.468Z,102201.93
2018-11-14T15:59:42.114Z,102199.92
2018-11-14T16:02:09.912Z,102197.45
2018-11-14T16:04:37.558Z,102197.95
2018-11-14T16:07:05.389Z,102197.28
2018-11-14T16:09:35.053Z,102199.92
2018-11-14T16:12:02.792Z,102198.73
2018-11-14T16:14:32.128Z,102197.65
2018-11-14T16:16:59.780Z,102203.98
2018-11-14T16:19:27.421Z,102203.17
2018-11-14T16:21:56.113Z,102200.03
2018-11-14T16:24:23.978Z,102201.44
2018-11-14T16:26:51.484Z,102200.81
2018-11-14T16:29:20.481Z,102184.99
2018-11-14T16:31:49.715Z,102193.61
2018-11-14T16:34:18.693Z,102195.33
2018-11-14T16:36:46.341Z,102193.97
2018-11-14T16:39:14.023Z,102188.66
2018-11-14T16:41:41.620Z,102192.57
2018-11-14T16:44:09.638Z,102179.88
2018-11-14T16:46:39.233Z,102186.37
2018-11-14T16:49:06.866Z,102183.80
2018-11-14T16:51:35.290Z,102182.75
2018-11-14T16:54:02.955Z,102187.92
2018-11-14T16:56:30.486Z,102185.81
2018-11-14T16:59:01.565Z,102181.95
2018-11-14T17:01:29.325Z,102183.81
2018-11-14T17:03:56.869Z,102183.00
2018-11-14T17:06:24.500Z,102177.27
2018-11-14T17:08:52.122Z,102181.45
2018-11-14T17:11:20.941Z,102177.84
2018-11-14T17:13:48.498Z,102185.31
2018-11-14T17:16:18.277Z,102176.32
2018-11-14T17:18:45.941Z,102175.78
2018-11-14T17:21:13.500Z,102183.88
2018-11-14T17:23:42.041Z,102182.43
2018-11-14T17:26:09.827Z,102179.11
2018-11-14T17:28:37.469Z,102180.63
2018-11-14T17:31:05.738Z,102179.63
2018-11-14T17:33:33.845Z,102180.55
2018-11-14T17:36:03.940Z,102192.22
2018-11-14T17:38:32.284Z,102188.09
2018-11-14T17:41:02.858Z,102188.83
2018-11-14T17:43:30.623Z,102184.30
2018-11-14T17:47:27.884Z,102184.36
2018-11-14T17:49:56.742Z,102191.27
2018-11-14T17:52:24.366Z,102188.72
2018-11-14T17:54:53.148Z,102184.88
2018-11-14T17:57:20.788Z,102187.38
2018-11-14T17:59:48.397Z,102183.41
2018-11-14T18:02:17.539Z,102182.34
2018-11-14T18:04:45.210Z,102180.15
2018-11-14T18:07:12.889Z,102179.13
2018-11-14T18:09:40.542Z,102178.22
2018-11-14T18:12:08.233Z,102185.04
2018-11-14T18:14:37.065Z,102193.36
2018-11-14T18:17:06.449Z,102184.26
2018-11-14T18:19:34.005Z,102180.16
2018-11-14T18:22:01.728Z,102177.89
2018-11-14T18:24:29.802Z,102178.60
2018-11-14T18:26:59.289Z,102185.59
2018-11-14T18:29:27.368Z,102188.30
2018-11-14T18:31:55.180Z,102187.71
2018-11-14T18:34:22.749Z,102193.13
2018-11-14T18:36:50.245Z,102193.88
2018-11-14T18:39:18.761Z,102182.88
2018-11-14T18:41:46.268Z,102187.41
2018-11-14T18:44:13.793Z,102186.37
2018-11-14T18:46:42.298Z,102186.94
2018-11-14T18:49:10.002Z,102185.09
2018-11-14T18:51:40.758Z,102185.05
2018-11-14T18:54:09.996Z,102182.23
2018-11-14T18:56:38.061Z,102174.50
2018-11-14T18:59:05.974Z,102180.53
2018-11-14T19:01:33.819Z,102182.52
2018-11-14T19:04:02.947Z,102186.73
2018-11-14T19:06:30.795Z,102178.97
2018-11-14T19:08:58.795Z,102184.70
2018-11-14T19:11:26.611Z,102184.89
2018-11-14T19:13:54.456Z,102178.37
2018-11-14T19:16:25.199Z,102191.14
2018-11-14T19:18:53.095Z,102192.52
2018-11-14T19:21:20.860Z,102182.02
2018-11-14T19:23:48.697Z,102175.91
2018-11-14T19:26:16.410Z,102180.38
2018-11-14T19:28:44.887Z,102185.61
2018-11-14T19:31:12.608Z,102180.89
2018-11-14T19:33:40.464Z,102186.69
2018-11-14T19:36:08.132Z,102179.70
2018-11-14T19:38:35.794Z,102187.19
2018-11-14T19:41:05.353Z,102177.39
2018-11-14T19:45:02.509Z,102179.94
2018-11-14T19:47:30.167Z,102182.25
2018-11-14T19:49:58.061Z,102184.18
2018-11-14T19:52:26.964Z,102175.81
2018-11-14T19:54:54.872Z,102175.03
2018-11-14T19:57:22.496Z,102176.05
2018-11-14T19:59:50.949Z,102171.09
2018-11-14T20:02:18.663Z,102168.16
2018-11-14T20:04:48.932Z,102164.80
2018-11-14T20:07:17.128Z,102168.40
2018-11-14T20:09:44.829Z,102171.49
2018-11-14T20:12:12.601Z,102164.45
2018-11-14T20:14:40.300Z,102159.99
2018-11-14T20:17:08.883Z,102167.98
2018-11-14T20:19:41.863Z,102159.88
2018-11-14T20:22:11.111Z,102159.11
2018-11-14T20:24:38.847Z,102153.87
2018-11-14T20:27:07.127Z,102152.70
2018-11-14T20:29:36.546Z,102159.36
2018-11-14T20:32:04.366Z,102164.33
2018-11-14T20:34:32.398Z,102165.55
2018-11-14T20:37:00.002Z,102162.74
2018-11-14T20:39:27.677Z,102164.51
2018-11-14T20:41:56.169Z,102165.80
2018-11-14T20:44:23.724Z,102163.19
2018-11-14T20:46:51.189Z,102155.27
2018-11-14T20:49:21.024Z,102161.86
2018-11-14T20:51:48.473Z,102164.06
2018-11-14T20:54:16.654Z,102168.50
2018-11-14T20:56:44.989Z,102161.23
2018-11-14T20:59:12.519Z,102153.87
2018-11-14T21:01:40.404Z,102148.02
2018-11-14T21:04:08.320Z,102151.75
2018-11-14T21:06:37.637Z,102149.06
2018-11-14T21:09:07.878Z,102153.00
2018-11-14T21:11:39.742Z,102152.53
2018-11-14T21:14:14.884Z,102156.13
2018-11-14T21:16:42.974Z,102168.96
2018-11-14T21:19:10.494Z,102155.62
2018-11-14T21:21:38.869Z,102157.88
2018-11-14T21:24:06.581Z,102162.60
2018-11-14T21:26:35.230Z,102157.48
2018-11-14T21:29:05.613Z,102163.57
2018-11-14T21:31:34.457Z,102165.05
2018-11-14T21:34:02.202Z,102154.70
2018-11-14T21:36:29.731Z,102155.48
2018-11-14T21:38:57.759Z,102161.55
2018-11-14T21:41:26.520Z,102157.34
2018-11-14T21:43:54.726Z,102157.03
2018-11-14T21:46:22.590Z,102152.54
2018-11-14T21:48:50.254Z,102146.11
2018-11-14T21:51:18.155Z,102155.41
2018-11-14T21:53:47.139Z,102156.56
2018-11-14T21:56:14.829Z,102153.27
2018-11-14T21:58:42.561Z,102150.94
2018-11-14T22:01:10.322Z,102151.21
2018-11-14T22:03:38.526Z,102156.05
2018-11-14T22:06:06.843Z,102151.78
2018-11-14T22:08:34.571Z,102156.23
2018-11-14T22:11:02.418Z,102157.38
2018-11-14T22:13:30.160Z,102159.44
2018-11-14T22:15:58.390Z,102156.05
2018-11-14T22:18:27.113Z,102152.98
2018-11-14T22:20:54.952Z,102157.06
2018-11-14T22:23:23.015Z,102154.60
2018-11-14T22:25:50.856Z,102151.97
2018-11-14T22:28:19.044Z,102145.48
2018-11-14T22:30:47.568Z,102153.32
2018-11-14T22:33:15.279Z,102155.16
2018-11-14T22:35:43.051Z,102151.66
2018-11-14T22:38:11.007Z,102151.79
2018-11-14T22:40:39.155Z,102159.11
2018-11-14T22:43:08.634Z,102156.41
2018-11-14T22:45:36.590Z,102158.01
2018-11-14T22:48:05.415Z,102163.66
2018-11-14T22:50:33.250Z,102166.95
2018-11-14T22:53:02.842Z,102159.75
2018-11-14T22:55:31.128Z,102167.61
2018-11-14T22:57:58.857Z,102163.70
2018-11-14T23:00:29.104Z,102162.53
2018-11-14T23:02:58.028Z,102165.14
2018-11-14T23:05:26.276Z,102165.41
2018-11-14T23:07:57.065Z,102166.08
2018-11-14T23:10:25.240Z,102162.09
2018-11-14T23:12:53.031Z,102161.66
2018-11-14T23:15:22.164Z,102160.16
2018-11-14T23:17:50.370Z,102153.30
2018-11-14T23:20:18.553Z,102163.19
2018-11-14T23:22:47.160Z,102162.92
2018-11-14T23:25:15.571Z,102157.53
2018-11-14T23:27:44.346Z,102157.41
2018-11-14T23:30:13.258Z,102162.09
2018-11-14T23:32:42.764Z,102157.01
2018-11-14T23:35:16.065Z,102161.83
2018-11-14T23:37:44.857Z,102162.68
2018-11-14T23:40:12.354Z,102154.02
2018-11-14T23:42:40.305Z,102156.11
2018-11-14T23:45:12.146Z,102151.87
2018-11-14T23:47:39.886Z,102153.74
2018-11-14T23:50:10.971Z,102150.05
2018-11-14T23:52:38.445Z,102156.65
2018-11-14T23:55:06.842Z,102157.62
2018-11-14T23:57:34.435Z,102155.27
